createdAt,value
2018-05-23T00:00:12.728Z,19.26
2018-05-23T00:02:41.083Z,19.22
2018-05-23T00:05:09.410Z,19.14
2018-05-23T00:07:37.755Z,19.11
2018-05-23T00:10:06.087Z,19.17
2018-05-23T00:12:34.423Z,19.11
2018-05-23T00:15:02.750Z,19.20
2018-05-23T00:17:31.109Z,19.21
2018-05-23T00:19:59.432Z,19.19
2018-05-23T00:22:27.748Z,19.10
2018-05-23T00:24:56.093Z,19.12
2018-05-23T00:27:24.416Z,19.03
2018-05-23T00:29:52.761Z,19.02
2018-05-23T00:32:21.085Z,19.05
2018-05-23T00:34:49.432Z,19.01
2018-05-23T00:37:17.757Z,19.05
2018-05-23T00:39:46.104Z,19.00
2018-05-23T00:42:14.428Z,19.02
2018-05-23T00:44:42.771Z,18.95
2018-05-23T00:47:11.092Z,18.95
2018-05-23T00:49:39.436Z,18.98
2018-05-23T00:52:07.760Z,18.99
2018-05-23T00:54:36.113Z,18.91
2018-05-23T00:57:04.437Z,18.83
2018-05-23T00:59:32.780Z,18.85
2018-05-23T01:02:01.105Z,18.73
2018-05-23T01:04:29.453Z,18.66
2018-05-23T01:06:57.788Z,18.59
2018-05-23T01:09:26.133Z,18.66
2018-05-23T01:11:54.462Z,18.64
2018-05-23T01:14:22.800Z,18.67
2018-05-23T01:16:51.124Z,18.64
2018-05-23T01:19:19.474Z,18.52
2018-05-23T01:21:47.800Z,18.55
2018-05-23T01:24:16.135Z,18.61
2018-05-23T01:26:44.461Z,18.48
2018-05-23T01:29:12.808Z,18.49
2018-05-23T01:31:41.124Z,18.49
2018-05-23T01:34:09.476Z,18.40
2018-05-23T01:36:37.801Z,18.33
2018-05-23T01:39:06.144Z,18.31
2018-05-23T01:41:34.476Z,18.27
2018-05-23T01:44:02.821Z,18.28
2018-05-23T01:46:31.153Z,18.28
2018-05-23T01:49:11.560Z,18.22
2018-05-23T01:51:39.889Z,18.28
2018-05-23T01:54:08.242Z,18.30
2018-05-23T01:56:36.565Z,18.21
2018-05-23T01:59:04.914Z,18.25
2018-05-23T02:01:33.237Z,18.27
2018-05-23T02:04:01.581Z,18.25
2018-05-23T02:06:29.909Z,18.23
2018-05-23T02:08:58.249Z,18.20
2018-05-23T02:11:26.577Z,18.13
2018-05-23T02:13:54.912Z,18.19
2018-05-23T02:16:23.237Z,18.19
2018-05-23T02:18:51.582Z,18.28
2018-05-23T02:21:19.912Z,18.25
2018-05-23T02:23:48.250Z,18.24
2018-05-23T02:26:16.572Z,18.14
2018-05-23T02:28:44.924Z,18.20
2018-05-23T02:31:13.261Z,18.23
2018-05-23T02:33:41.589Z,18.18
2018-05-23T02:36:09.941Z,18.14
2018-05-23T02:38:38.262Z,18.16
2018-05-23T02:41:06.606Z,18.23
2018-05-23T02:43:34.921Z,18.21
2018-05-23T02:46:03.276Z,18.23
2018-05-23T02:48:31.597Z,18.17
2018-05-23T02:50:59.946Z,18.31
2018-05-23T02:53:28.264Z,18.29
2018-05-23T02:55:56.608Z,18.35
2018-05-23T02:58:24.932Z,18.39
2018-05-23T03:00:53.281Z,18.35
2018-05-23T03:03:21.609Z,18.34
2018-05-23T03:05:49.961Z,18.42
2018-05-23T03:08:18.293Z,18.39
2018-05-23T03:10:46.644Z,18.32
2018-05-23T03:13:14.968Z,18.27
2018-05-23T03:15:43.309Z,18.29
2018-05-23T03:18:11.649Z,18.33
2018-05-23T03:20:39.997Z,18.40
2018-05-23T03:23:08.312Z,18.31
2018-05-23T03:25:36.652Z,18.20
2018-05-23T03:28:04.973Z,18.21
2018-05-23T03:30:33.312Z,18.21
2018-05-23T03:33:01.640Z,18.14
2018-05-23T03:35:29.980Z,18.11
2018-05-23T03:37:58.331Z,18.17
2018-05-23T03:40:26.672Z,18.22
2018-05-23T03:42:55.000Z,18.14
2018-05-23T03:45:23.348Z,18.14
2018-05-23T03:47:51.668Z,18.21
2018-05-23T03:50:20.013Z,18.18
2018-05-23T03:52:48.341Z,18.15
2018-05-23T03:55:16.742Z,18.20
2018-05-23T03:57:45.017Z,18.24
2018-05-23T04:00:25.177Z,18.23
2018-05-23T04:03:06.095Z,18.24
2018-05-23T04:05:46.029Z,18.22
2018-05-23T04:08:14.364Z,18.23
2018-05-23T04:10:42.712Z,18.21
2018-05-23T04:13:11.035Z,18.15
2018-05-23T04:15:39.376Z,18.11
2018-05-23T04:18:07.692Z,18.11
2018-05-23T04:20:36.436Z,18.14
2018-05-23T04:23:04.759Z,18.09
2018-05-23T04:25:33.104Z,18.10
2018-05-23T04:28:01.429Z,18.04
2018-05-23T04:30:29.773Z,18.03
2018-05-23T04:32:58.107Z,18.05
2018-05-23T04:35:26.452Z,18.09
2018-05-23T04:37:54.776Z,18.01
2018-05-23T04:40:23.121Z,18.01
2018-05-23T04:42:51.446Z,18.06
2018-05-23T04:45:19.792Z,18.02
2018-05-23T04:47:48.116Z,18.11
2018-05-23T04:50:16.481Z,18.14
2018-05-23T04:52:44.804Z,18.18
2018-05-23T04:55:13.152Z,18.15
2018-05-23T04:57:41.499Z,18.13
2018-05-23T05:00:09.845Z,18.16
2018-05-23T05:02:38.167Z,18.06
2018-05-23T05:05:06.490Z,18.08
2018-05-23T05:07:34.845Z,18.15
2018-05-23T05:10:03.295Z,18.08
2018-05-23T05:12:31.532Z,18.13
2018-05-23T05:14:59.861Z,18.24
2018-05-23T05:17:28.205Z,18.24
2018-05-23T05:19:56.546Z,18.19
2018-05-23T05:22:25.716Z,18.28
2018-05-23T05:24:54.066Z,18.32
2018-05-23T05:27:22.419Z,18.37
2018-05-23T05:29:50.745Z,18.41
2018-05-23T05:32:19.101Z,18.48
2018-05-23T05:34:47.442Z,18.51
2018-05-23T05:37:15.792Z,18.58
2018-05-23T05:39:44.120Z,18.59
2018-05-23T05:42:12.527Z,18.61
2018-05-23T05:44:40.865Z,18.66
2018-05-23T05:47:09.222Z,18.77
2018-05-23T05:49:37.560Z,18.87
2018-05-23T05:52:05.922Z,18.92
2018-05-23T05:54:34.250Z,19.03
2018-05-23T05:57:02.596Z,19.04
2018-05-23T05:59:30.920Z,18.99
2018-05-23T06:02:00.026Z,19.07
2018-05-23T06:04:28.357Z,19.07
2018-05-23T06:06:56.694Z,19.21
2018-05-23T06:09:25.031Z,19.17
2018-05-23T06:11:53.376Z,19.33
2018-05-23T06:14:21.705Z,19.47
2018-05-23T06:16:50.056Z,19.48
2018-05-23T06:19:18.385Z,19.66
2018-05-23T06:21:46.809Z,19.79
2018-05-23T06:24:15.140Z,19.89
2018-05-23T06:26:43.502Z,20.03
2018-05-23T06:29:11.833Z,20.14
2018-05-23T06:31:40.181Z,20.26
2018-05-23T06:34:08.510Z,20.18
2018-05-23T06:36:36.864Z,20.06
2018-05-23T06:39:05.894Z,20.21
2018-05-23T06:41:34.479Z,20.31
2018-05-23T06:44:02.806Z,20.43
2018-05-23T06:46:31.152Z,20.44
2018-05-23T06:48:59.477Z,20.37
2018-05-23T06:51:27.836Z,20.38
2018-05-23T06:53:56.156Z,20.32
2018-05-23T06:56:24.518Z,20.47
2018-05-23T06:58:52.856Z,20.55
2018-05-23T07:01:22.181Z,20.70
2018-05-23T07:03:50.519Z,20.94
2018-05-23T07:06:18.854Z,20.95
2018-05-23T07:08:47.210Z,20.93
2018-05-23T07:11:15.598Z,21.10
2018-05-23T07:13:43.884Z,21.18
2018-05-23T07:16:12.218Z,21.06
2018-05-23T07:18:40.572Z,21.07
2018-05-23T07:21:08.901Z,21.26
2018-05-23T07:23:37.257Z,21.28
2018-05-23T07:26:05.584Z,21.27
2018-05-23T07:28:33.938Z,21.13
2018-05-23T07:31:02.265Z,21.00
2018-05-23T07:33:30.656Z,21.03
2018-05-23T07:35:58.980Z,21.04
2018-05-23T07:38:27.417Z,21.13
2018-05-23T07:40:55.649Z,21.08
2018-05-23T07:43:24.003Z,21.09
2018-05-23T07:45:52.396Z,21.13
2018-05-23T07:48:20.678Z,21.23
2018-05-23T07:50:49.005Z,21.51
2018-05-23T07:53:17.361Z,21.50
2018-05-23T07:55:45.689Z,21.51
2018-05-23T07:58:14.039Z,21.61
2018-05-23T08:00:42.384Z,21.65
2018-05-23T08:03:10.732Z,21.60
2018-05-23T08:05:39.061Z,21.77
2018-05-23T08:08:07.413Z,21.84
2018-05-23T08:10:35.733Z,21.97
2018-05-23T08:13:04.092Z,22.07
2018-05-23T08:15:32.433Z,22.15
2018-05-23T08:18:00.793Z,22.40
2018-05-23T08:20:29.121Z,22.57
2018-05-23T08:22:57.484Z,22.56
2018-05-23T08:25:25.809Z,22.63
2018-05-23T08:27:54.160Z,22.57
2018-05-23T08:30:22.497Z,22.72
2018-05-23T08:32:50.851Z,22.80
2018-05-23T08:35:19.172Z,22.95
2018-05-23T08:37:47.524Z,23.09
2018-05-23T08:40:15.848Z,23.12
2018-05-23T08:42:44.201Z,23.17
2018-05-23T08:45:12.524Z,23.17
2018-05-23T08:47:40.881Z,23.27
2018-05-23T08:50:09.214Z,23.40
2018-05-23T08:52:37.568Z,23.45
2018-05-23T08:55:05.905Z,23.72
2018-05-23T08:57:34.260Z,23.74
2018-05-23T09:00:02.598Z,23.82
2018-05-23T09:02:30.952Z,23.97
2018-05-23T09:04:59.329Z,23.75
2018-05-23T09:07:27.626Z,24.02
2018-05-23T09:09:55.981Z,24.10
2018-05-23T09:12:24.397Z,24.17
2018-05-23T09:14:52.656Z,24.23
2018-05-23T09:17:20.997Z,24.23
2018-05-23T09:19:49.350Z,24.14
2018-05-23T09:22:17.677Z,24.22
2018-05-23T09:24:46.025Z,24.25
2018-05-23T09:27:14.353Z,24.15
2018-05-23T09:29:42.701Z,24.24
2018-05-23T09:32:11.105Z,24.06
2018-05-23T09:34:39.377Z,23.97
2018-05-23T09:37:07.721Z,24.03
2018-05-23T09:39:36.059Z,24.27
2018-05-23T09:42:04.384Z,24.35
2018-05-23T09:44:32.733Z,24.30
2018-05-23T09:47:01.066Z,24.39
2018-05-23T09:49:29.412Z,24.35
2018-05-23T09:51:57.737Z,24.48
2018-05-23T09:54:26.088Z,24.66
2018-05-23T09:56:54.410Z,24.58
2018-05-23T09:59:22.761Z,24.64
2018-05-23T10:01:51.093Z,24.74
2018-05-23T10:04:19.445Z,24.88
2018-05-23T10:06:47.769Z,24.85
2018-05-23T10:09:16.120Z,24.91
2018-05-23T10:11:44.449Z,24.95
2018-05-23T10:14:12.816Z,25.00
2018-05-23T10:16:41.125Z,24.97
2018-05-23T10:19:09.473Z,24.84
2018-05-23T10:21:37.805Z,24.89
2018-05-23T10:24:06.150Z,25.10
2018-05-23T10:26:34.486Z,25.21
2018-05-23T10:29:02.836Z,25.01
2018-05-23T10:31:31.157Z,25.05
2018-05-23T10:33:59.506Z,25.26
2018-05-23T10:36:27.837Z,25.25
2018-05-23T10:38:56.275Z,25.27
2018-05-23T10:41:24.529Z,25.16
2018-05-23T10:43:52.876Z,25.21
2018-05-23T10:46:21.281Z,25.16
2018-05-23T10:48:49.557Z,25.19
2018-05-23T10:51:17.885Z,25.12
2018-05-23T10:53:46.232Z,25.05
2018-05-23T10:56:14.566Z,25.12
2018-05-23T10:58:42.917Z,25.15
2018-05-23T11:01:11.321Z,25.18
2018-05-23T11:03:39.876Z,25.12
2018-05-23T11:06:08.217Z,25.11
2018-05-23T11:08:36.657Z,25.11
2018-05-23T11:11:05.077Z,25.21
2018-05-23T11:13:33.412Z,25.33
2018-05-23T11:16:01.931Z,25.19
2018-05-23T11:18:30.346Z,25.14
2018-05-23T11:20:58.724Z,25.22
2018-05-23T11:23:27.064Z,25.22
2018-05-23T11:25:55.412Z,25.43
2018-05-23T11:28:23.736Z,25.50
2018-05-23T11:30:52.093Z,25.48
2018-05-23T11:33:20.416Z,25.48
2018-05-23T11:35:48.848Z,25.52
2018-05-23T11:38:17.106Z,25.52
2018-05-23T11:40:46.064Z,25.64
2018-05-23T11:43:14.399Z,25.66
2018-05-23T11:45:42.748Z,25.66
2018-05-23T11:48:28.088Z,25.72
2018-05-23T11:50:56.444Z,25.77
2018-05-23T11:53:24.767Z,25.70
2018-05-23T11:55:53.121Z,25.73
2018-05-23T11:58:21.443Z,25.70
2018-05-23T12:00:49.798Z,25.63
2018-05-23T12:03:18.115Z,25.69
2018-05-23T12:05:46.469Z,25.74
2018-05-23T12:08:14.797Z,25.84
2018-05-23T12:10:43.573Z,25.96
2018-05-23T12:13:11.888Z,26.01
2018-05-23T12:15:40.241Z,26.06
2018-05-23T12:18:08.560Z,26.11
2018-05-23T12:20:36.916Z,26.26
2018-05-23T12:23:05.242Z,26.40
2018-05-23T12:25:33.594Z,26.41
2018-05-23T12:28:01.925Z,26.55
2018-05-23T12:30:31.084Z,26.59
2018-05-23T12:32:59.409Z,26.67
2018-05-23T12:35:27.760Z,26.75
2018-05-23T12:37:56.089Z,26.63
2018-05-23T12:40:24.435Z,26.65
2018-05-23T12:42:52.768Z,26.60
2018-05-23T12:45:21.116Z,26.67
2018-05-23T12:47:49.454Z,26.63
2018-05-23T12:50:18.824Z,26.80
2018-05-23T12:52:47.148Z,26.80
2018-05-23T12:55:15.492Z,26.84
2018-05-23T12:57:43.816Z,26.77
2018-05-23T13:00:12.160Z,26.80
2018-05-23T13:02:40.488Z,26.80
2018-05-23T13:05:09.181Z,26.76
2018-05-23T13:07:37.575Z,26.98
2018-05-23T13:10:05.928Z,26.99
2018-05-23T13:12:34.362Z,26.96
2018-05-23T13:15:02.604Z,26.95
2018-05-23T13:17:30.928Z,26.93
2018-05-23T13:19:59.272Z,26.78
2018-05-23T13:22:27.597Z,26.87
2018-05-23T13:24:55.920Z,26.96
2018-05-23T13:27:24.268Z,27.00
2018-05-23T13:29:53.137Z,27.32
2018-05-23T13:32:21.481Z,27.44
2018-05-23T13:34:49.813Z,27.38
2018-05-23T13:37:18.152Z,27.40
2018-05-23T13:39:46.485Z,27.35
2018-05-23T13:42:14.836Z,27.37
2018-05-23T13:44:43.165Z,27.35
2018-05-23T13:47:11.706Z,27.42
2018-05-23T13:49:40.032Z,27.40
2018-05-23T13:52:08.381Z,27.29
2018-05-23T13:54:36.880Z,27.11
2018-05-23T13:57:05.387Z,27.21
2018-05-23T13:59:33.729Z,27.24
2018-05-23T14:02:02.105Z,27.38
2018-05-23T14:04:30.465Z,27.71
2018-05-23T14:06:59.447Z,27.48
2018-05-23T14:09:27.965Z,27.26
2018-05-23T14:11:56.476Z,27.21
2018-05-23T14:14:24.987Z,27.24
2018-05-23T14:16:53.459Z,27.32
2018-05-23T14:19:22.052Z,27.26
2018-05-23T14:21:50.358Z,27.29
2018-05-23T14:24:18.699Z,27.29
2018-05-23T14:26:47.340Z,27.36
2018-05-23T14:29:15.897Z,27.22
2018-05-23T14:31:44.459Z,27.09
2018-05-23T14:34:12.854Z,27.07
2018-05-23T14:36:41.357Z,27.08
2018-05-23T14:39:10.569Z,27.03
2018-05-23T14:41:38.908Z,27.10
2018-05-23T14:44:07.233Z,27.09
2018-05-23T14:46:35.576Z,27.09
2018-05-23T14:49:04.001Z,27.22
2018-05-23T14:51:32.353Z,27.35
2018-05-23T14:54:00.677Z,27.33
2018-05-23T14:56:29.020Z,27.23
2018-05-23T14:58:58.214Z,27.33
2018-05-23T15:01:26.560Z,27.50
2018-05-23T15:03:54.884Z,27.50
2018-05-23T15:06:23.227Z,27.50
2018-05-23T15:08:51.557Z,27.33
2018-05-23T15:11:19.913Z,27.27
2018-05-23T15:13:48.237Z,27.22
2018-05-23T15:16:16.584Z,27.20
2018-05-23T15:18:44.914Z,27.20
2018-05-23T15:21:13.259Z,27.18
2018-05-23T15:23:41.588Z,27.18
2018-05-23T15:26:09.949Z,27.19
2018-05-23T15:28:38.524Z,27.34
2018-05-23T15:31:06.855Z,27.17
2018-05-23T15:33:35.200Z,27.13
2018-05-23T15:36:03.525Z,27.14
2018-05-23T15:38:31.868Z,27.27
2018-05-23T15:41:00.215Z,27.30
2018-05-23T15:43:28.551Z,27.26
2018-05-23T15:45:56.877Z,27.28
2018-05-23T15:48:25.234Z,27.31
2018-05-23T15:50:53.564Z,27.30
2018-05-23T15:53:21.909Z,27.23
2018-05-23T15:55:50.465Z,27.20
2018-05-23T15:58:18.812Z,27.07
2018-05-23T16:00:47.140Z,27.03
2018-05-23T16:03:15.488Z,27.04
2018-05-23T16:05:43.813Z,27.20
2018-05-23T16:08:12.156Z,27.01
2018-05-23T16:10:40.485Z,26.93
2018-05-23T16:13:08.830Z,26.96
2018-05-23T16:15:38.233Z,26.99
2018-05-23T16:18:06.592Z,26.88
2018-05-23T16:20:34.952Z,26.87
2018-05-23T16:23:03.269Z,26.78
2018-05-23T16:25:31.595Z,26.80
2018-05-23T16:27:59.950Z,26.72
2018-05-23T16:30:28.284Z,26.62
2018-05-23T16:32:56.628Z,26.57
2018-05-23T16:35:25.104Z,26.70
2018-05-23T16:37:53.448Z,26.75
2018-05-23T16:40:22.490Z,26.62
2018-05-23T16:42:50.904Z,26.62
2018-05-23T16:45:20.044Z,26.59
2018-05-23T16:47:48.405Z,26.59
2018-05-23T16:50:16.738Z,26.69
2018-05-23T16:52:45.096Z,26.63
2018-05-23T16:55:13.420Z,26.43
2018-05-23T16:57:41.777Z,26.46
2018-05-23T17:00:10.101Z,26.46
2018-05-23T17:02:38.506Z,26.36
2018-05-23T17:05:06.817Z,26.37
2018-05-23T17:07:35.164Z,26.20
2018-05-23T17:10:03.489Z,26.23
2018-05-23T17:12:31.889Z,26.22
2018-05-23T17:15:00.168Z,26.22
2018-05-23T17:17:28.523Z,26.27
2018-05-23T17:19:56.862Z,26.17
2018-05-23T17:22:25.197Z,26.03
2018-05-23T17:24:53.528Z,26.05
2018-05-23T17:27:21.953Z,26.03
2018-05-23T17:29:50.218Z,26.07
2018-05-23T17:32:18.535Z,25.91
2018-05-23T17:34:47.204Z,25.86
2018-05-23T17:37:15.528Z,25.83
2018-05-23T17:39:43.875Z,25.72
2018-05-23T17:42:12.200Z,25.63
2018-05-23T17:44:40.552Z,25.69
2018-05-23T17:47:08.887Z,25.59
2018-05-23T17:49:37.228Z,25.52
2018-05-23T17:52:05.555Z,25.48
2018-05-23T17:54:33.914Z,25.43
2018-05-23T17:57:02.308Z,25.37
2018-05-23T17:59:30.589Z,25.35
2018-05-23T18:01:58.913Z,25.29
2018-05-23T18:04:27.257Z,25.19
2018-05-23T18:06:55.589Z,25.50
2018-05-23T18:09:23.931Z,25.25
2018-05-23T18:11:52.261Z,25.09
2018-05-23T18:14:21.464Z,25.00
2018-05-23T18:16:49.833Z,24.85
2018-05-23T18:19:18.144Z,24.91
2018-05-23T18:21:46.469Z,24.88
2018-05-23T18:24:14.821Z,24.90
2018-05-23T18:26:43.152Z,24.97
2018-05-23T18:29:11.492Z,24.96
2018-05-23T18:31:39.824Z,25.00
2018-05-23T18:34:08.183Z,24.98
2018-05-23T18:36:36.509Z,24.97
2018-05-23T18:39:04.853Z,24.85
2018-05-23T18:41:33.180Z,24.69
2018-05-23T18:44:01.520Z,24.73
2018-05-23T18:46:29.856Z,24.57
2018-05-23T18:48:58.257Z,24.51
2018-05-23T18:51:26.596Z,24.43
2018-05-23T18:53:54.985Z,24.36
2018-05-23T18:56:23.387Z,24.40
2018-05-23T18:58:51.733Z,24.42
2018-05-23T19:01:20.084Z,24.36
2018-05-23T19:03:48.513Z,24.44
2018-05-23T19:06:16.942Z,24.27
2018-05-23T19:08:45.349Z,24.21
2018-05-23T19:11:13.721Z,24.27
2018-05-23T19:13:42.070Z,24.04
2018-05-23T19:16:10.402Z,23.99
2018-05-23T19:18:38.749Z,24.00
2018-05-23T19:21:07.155Z,23.98
2018-05-23T19:23:35.616Z,23.98
2018-05-23T19:26:04.042Z,23.90
2018-05-23T19:28:32.383Z,23.92
2018-05-23T19:31:00.716Z,23.98
2018-05-23T19:33:29.056Z,23.89
2018-05-23T19:35:57.429Z,23.88
2018-05-23T19:38:25.830Z,23.92
2018-05-23T19:40:54.220Z,23.83
2018-05-23T19:43:22.573Z,23.79
2018-05-23T19:45:50.995Z,23.62
2018-05-23T19:48:19.390Z,23.62
2018-05-23T19:50:48.064Z,23.49
2018-05-23T19:53:16.401Z,23.46
2018-05-23T19:55:44.753Z,24.12
2018-05-23T19:58:13.793Z,23.65
2018-05-23T20:00:42.148Z,23.39
2018-05-23T20:03:10.485Z,23.29
2018-05-23T20:05:38.840Z,23.22
2018-05-23T20:08:07.312Z,23.12
2018-05-23T20:10:35.520Z,23.13
2018-05-23T20:13:03.856Z,23.09
2018-05-23T20:15:32.201Z,22.94
2018-05-23T20:18:00.536Z,22.91
2018-05-23T20:20:28.884Z,22.69
2018-05-23T20:22:57.220Z,22.64
2018-05-23T20:25:25.568Z,22.51
2018-05-23T20:27:53.907Z,22.41
2018-05-23T20:30:22.263Z,22.31
2018-05-23T20:32:50.592Z,22.10
2018-05-23T20:35:18.954Z,22.19
2018-05-23T20:37:47.280Z,22.13
2018-05-23T20:40:15.624Z,22.12
2018-05-23T20:42:43.961Z,22.13
2018-05-23T20:45:12.312Z,22.13
2018-05-23T20:47:40.680Z,21.96
2018-05-23T20:50:08.984Z,21.94
2018-05-23T20:52:37.320Z,21.87
2018-05-23T20:55:05.666Z,21.74
2018-05-23T20:57:33.985Z,21.57
2018-05-23T21:00:02.332Z,21.50
2018-05-23T21:02:30.652Z,21.47
2018-05-23T21:04:58.996Z,21.29
2018-05-23T21:07:27.328Z,21.12
2018-05-23T21:09:55.682Z,21.12
2018-05-23T21:12:24.000Z,21.03
2018-05-23T21:14:52.356Z,21.00
2018-05-23T21:17:20.688Z,20.89
2018-05-23T21:19:49.041Z,20.87
2018-05-23T21:22:17.436Z,20.79
2018-05-23T21:24:45.768Z,20.75
2018-05-23T21:27:14.111Z,20.71
2018-05-23T21:29:42.466Z,20.79
2018-05-23T21:32:10.797Z,20.74
2018-05-23T21:34:39.243Z,20.65
2018-05-23T21:37:07.529Z,20.50
2018-05-23T21:39:35.868Z,20.41
2018-05-23T21:42:04.221Z,20.32
2018-05-23T21:44:32.893Z,20.28
2018-05-23T21:47:01.262Z,20.28
2018-05-23T21:49:29.583Z,20.19
2018-05-23T21:51:57.941Z,20.19
2018-05-23T21:54:26.306Z,20.10
2018-05-23T21:56:54.652Z,20.12
2018-05-23T21:59:22.971Z,20.04
2018-05-23T22:01:51.325Z,19.96
2018-05-23T22:04:19.781Z,20.08
2018-05-23T22:06:48.137Z,20.02
2018-05-23T22:09:16.453Z,20.02
2018-05-23T22:11:44.795Z,20.00
2018-05-23T22:14:13.117Z,20.00
2018-05-23T22:16:41.469Z,19.98
2018-05-23T22:19:09.798Z,19.93
2018-05-23T22:21:38.136Z,19.74
2018-05-23T22:24:06.462Z,19.70
2018-05-23T22:26:34.808Z,19.75
2018-05-23T22:29:03.124Z,19.79
2018-05-23T22:31:31.468Z,19.87
2018-05-23T22:33:59.792Z,19.82
2018-05-23T22:36:28.133Z,19.81
2018-05-23T22:38:56.451Z,19.85
2018-05-23T22:41:24.792Z,19.72
2018-05-23T22:43:53.114Z,19.60
2018-05-23T22:46:21.448Z,19.36
2018-05-23T22:48:49.767Z,19.36
2018-05-23T22:51:18.109Z,19.48
2018-05-23T22:53:46.429Z,19.59
2018-05-23T22:56:14.773Z,19.47
2018-05-23T22:58:43.136Z,19.39
2018-05-23T23:01:11.480Z,19.35
2018-05-23T23:03:39.802Z,19.21
2018-05-23T23:06:08.139Z,19.16
2018-05-23T23:08:36.455Z,19.18
2018-05-23T23:11:04.796Z,19.12
2018-05-23T23:13:33.115Z,19.05
2018-05-23T23:16:01.461Z,19.12
2018-05-23T23:18:29.785Z,19.00
2018-05-23T23:20:58.129Z,19.03
2018-05-23T23:23:26.448Z,19.02
2018-05-23T23:25:54.793Z,19.05
2018-05-23T23:28:23.112Z,19.04
2018-05-23T23:30:51.768Z,19.11
2018-05-23T23:33:20.089Z,19.12
2018-05-23T23:35:48.408Z,19.17
2018-05-23T23:38:16.753Z,19.18
2018-05-23T23:40:45.077Z,19.18
2018-05-23T23:43:13.412Z,19.27
2018-05-23T23:45:41.741Z,19.09
2018-05-23T23:48:10.076Z,19.04
2018-05-23T23:50:38.401Z,18.86
2018-05-23T23:53:06.740Z,18.81
2018-05-23T23:55:35.054Z,18.75
2018-05-23T23:58:03.398Z,18.69
